createdAt,value
2016-11-20T00:00:14.798Z,14
2016-11-20T00:01:29.272Z,14
2016-11-20T00:02:44.453Z,14
2016-11-20T00:03:59.912Z,14
2016-11-20T00:05:15.074Z,14
2016-11-20T00:06:29.844Z,14
2016-11-20T00:07:44.345Z,14
2016-11-20T00:08:59.967Z,14
2016-11-20T00:10:14.951Z,14
2016-11-20T00:11:29.863Z,14
2016-11-20T00:12:44.536Z,14
2016-11-20T00:13:58.751Z,14
2016-11-20T00:15:13.942Z,14
2016-11-20T00:16:29.144Z,14
2016-11-20T00:17:44.905Z,14
2016-11-20T00:18:59.540Z,14
2016-11-20T00:20:14.055Z,14
2016-11-20T00:21:29.175Z,14
2016-11-20T00:22:43.531Z,14
2016-11-20T00:23:58.839Z,14
2016-11-20T00:25:14.238Z,14
2016-11-20T00:26:29.116Z,14
2016-11-20T00:27:43.962Z,14
2016-11-20T00:28:58.074Z,14
2016-11-20T00:30:13.160Z,14
2016-11-20T00:32:57.553Z,14
2016-11-20T00:34:12.707Z,14
2016-11-20T00:35:27.000Z,14
2016-11-20T00:36:42.363Z,14
2016-11-20T00:37:57.331Z,14
2016-11-20T00:39:12.549Z,14
2016-11-20T00:40:27.415Z,14
2016-11-20T00:41:42.212Z,14
2016-11-20T00:42:57.331Z,14
2016-11-20T00:44:11.608Z,14
2016-11-20T00:45:26.651Z,14
2016-11-20T00:46:41.103Z,14
2016-11-20T00:47:56.055Z,14
2016-11-20T00:49:11.938Z,14
2016-11-20T00:50:26.431Z,14
2016-11-20T00:51:41.000Z,14
2016-11-20T00:52:55.579Z,14
2016-11-20T00:54:09.970Z,14
2016-11-20T00:55:24.356Z,14
2016-11-20T00:56:39.221Z,14
2016-11-20T00:57:53.840Z,14
2016-11-20T00:59:09.021Z,14
2016-11-20T01:00:24.217Z,14
2016-11-20T01:01:38.675Z,14
2016-11-20T01:02:53.339Z,14
2016-11-20T01:04:07.842Z,14
2016-11-20T01:05:22.659Z,14
2016-11-20T01:06:39.951Z,14
2016-11-20T01:07:54.545Z,14
2016-11-20T01:09:09.694Z,14
2016-11-20T01:10:24.265Z,14
2016-11-20T01:11:38.607Z,14
2016-11-20T01:12:53.463Z,14
2016-11-20T01:14:08.307Z,14
2016-11-20T01:15:37.698Z,15
2016-11-20T01:17:21.995Z,15
2016-11-20T01:18:36.385Z,15
2016-11-20T01:19:53.438Z,15
2016-11-20T01:21:08.019Z,15
2016-11-20T01:22:22.886Z,15
2016-11-20T01:23:38.500Z,15
2016-11-20T01:24:57.972Z,15
2016-11-20T01:26:15.478Z,15
2016-11-20T01:27:30.651Z,15
2016-11-20T01:28:48.220Z,15
2016-11-20T01:30:03.773Z,15
2016-11-20T01:31:18.486Z,15
2016-11-20T01:32:32.682Z,15
2016-11-20T01:33:47.235Z,15
2016-11-20T01:35:01.614Z,15
2016-11-20T01:36:16.144Z,15
2016-11-20T01:37:30.775Z,15
2016-11-20T01:38:59.972Z,15
2016-11-20T01:40:14.413Z,15
2016-11-20T01:41:29.317Z,15
2016-11-20T01:42:58.907Z,15
2016-11-20T01:44:13.233Z,15
2016-11-20T01:45:27.490Z,15
2016-11-20T01:46:42.184Z,15
2016-11-20T01:47:56.958Z,15
2016-11-20T01:49:11.617Z,15
2016-11-20T01:50:25.782Z,15
2016-11-20T01:51:40.360Z,15
2016-11-20T01:52:55.199Z,15
2016-11-20T01:54:09.700Z,15
2016-11-20T01:55:24.268Z,15
2016-11-20T01:56:38.974Z,15
2016-11-20T01:57:53.277Z,15
2016-11-20T01:59:08.360Z,15
2016-11-20T02:00:23.135Z,15
2016-11-20T02:01:37.897Z,15
2016-11-20T02:02:52.290Z,15
2016-11-20T02:04:06.420Z,15
2016-11-20T02:05:20.826Z,15
2016-11-20T02:06:35.072Z,15
2016-11-20T02:07:49.664Z,15
2016-11-20T02:09:04.156Z,15
2016-11-20T02:10:18.638Z,15
2016-11-20T02:11:33.584Z,15
2016-11-20T02:12:47.991Z,15
2016-11-20T02:14:02.995Z,15
2016-11-20T02:15:17.079Z,15
2016-11-20T02:16:31.540Z,15
2016-11-20T02:17:46.233Z,15
2016-11-20T02:19:00.683Z,15
2016-11-20T02:20:15.060Z,15
2016-11-20T02:21:29.461Z,15
2016-11-20T02:22:44.183Z,15
2016-11-20T02:23:58.600Z,15
2016-11-20T02:25:15.141Z,15
2016-11-20T02:26:29.898Z,15
2016-11-20T02:27:44.303Z,15
2016-11-20T02:28:59.279Z,15
2016-11-20T02:30:14.023Z,15
2016-11-20T02:31:28.308Z,15
2016-11-20T02:32:43.016Z,15
2016-11-20T02:33:57.651Z,15
2016-11-20T02:35:11.914Z,14
2016-11-20T02:36:26.738Z,14
2016-11-20T02:37:41.258Z,14
2016-11-20T02:39:10.567Z,14
2016-11-20T02:40:24.998Z,14
2016-11-20T02:44:36.627Z,14
2016-11-20T02:45:51.544Z,14
2016-11-20T02:47:06.205Z,14
2016-11-20T02:48:20.803Z,14
2016-11-20T02:49:35.229Z,14
2016-11-20T02:50:51.345Z,14
2016-11-20T02:52:05.652Z,14
2016-11-20T02:53:19.892Z,14
2016-11-20T02:54:33.945Z,14
2016-11-20T02:55:48.667Z,14
2016-11-20T02:57:03.620Z,14
2016-11-20T02:58:17.943Z,14
2016-11-20T02:59:32.930Z,14
2016-11-20T03:00:47.580Z,14
2016-11-20T03:02:02.044Z,14
2016-11-20T03:03:16.747Z,14
2016-11-20T03:04:31.161Z,14
2016-11-20T03:05:45.746Z,14
2016-11-20T03:06:59.816Z,14
2016-11-20T03:08:13.953Z,14
2016-11-20T03:09:29.435Z,14
2016-11-20T03:10:43.789Z,14
2016-11-20T03:11:58.921Z,14
2016-11-20T03:13:13.263Z,14
2016-11-20T03:14:27.704Z,14
2016-11-20T03:15:42.237Z,14
2016-11-20T03:16:56.640Z,14
2016-11-20T03:18:11.386Z,14
2016-11-20T03:19:40.585Z,14
2016-11-20T03:20:54.911Z,14
2016-11-20T03:22:09.665Z,14
2016-11-20T03:23:24.348Z,14
2016-11-20T03:24:38.620Z,14
2016-11-20T03:25:53.139Z,14
2016-11-20T03:27:07.473Z,14
2016-11-20T03:28:22.066Z,14
2016-11-20T03:29:36.845Z,14
2016-11-20T03:30:50.998Z,14
2016-11-20T03:32:05.332Z,14
2016-11-20T03:33:19.843Z,14
2016-11-20T03:34:34.575Z,14
2016-11-20T03:35:49.292Z,14
2016-11-20T03:37:03.681Z,14
2016-11-20T03:38:18.026Z,14
2016-11-20T03:39:32.533Z,14
2016-11-20T03:40:46.881Z,14
2016-11-20T03:42:01.139Z,14
2016-11-20T03:43:15.801Z,14
2016-11-20T03:44:32.575Z,14
2016-11-20T03:45:46.903Z,14
2016-11-20T03:47:01.622Z,14
2016-11-20T03:48:15.924Z,14
2016-11-20T03:49:30.641Z,14
2016-11-20T03:50:45.336Z,14
2016-11-20T03:52:43.666Z,14
2016-11-20T03:53:58.582Z,14
2016-11-20T03:55:12.767Z,14
2016-11-20T03:56:27.385Z,14
2016-11-20T03:57:41.795Z,14
2016-11-20T03:58:56.160Z,14
2016-11-20T04:00:10.889Z,14
2016-11-20T04:01:25.131Z,14
2016-11-20T04:02:39.734Z,14
2016-11-20T04:03:54.364Z,14
2016-11-20T04:05:08.520Z,14
2016-11-20T04:06:23.138Z,14
2016-11-20T04:07:38.152Z,14
2016-11-20T04:08:52.860Z,14
2016-11-20T04:10:07.281Z,14
2016-11-20T04:11:21.583Z,14
2016-11-20T04:12:36.153Z,14
2016-11-20T04:13:50.593Z,14
2016-11-20T04:15:05.072Z,14
2016-11-20T04:16:19.300Z,14
2016-11-20T04:17:33.310Z,14
2016-11-20T04:18:47.849Z,14
2016-11-20T04:20:02.082Z,14
2016-11-20T04:21:16.714Z,14
2016-11-20T04:22:31.379Z,14
2016-11-20T04:23:45.460Z,14
2016-11-20T04:25:00.052Z,14
2016-11-20T04:26:15.171Z,14
2016-11-20T04:27:29.448Z,14
2016-11-20T04:28:44.083Z,14
2016-11-20T04:29:58.546Z,14
2016-11-20T04:31:13.023Z,14
2016-11-20T04:32:27.271Z,14
2016-11-20T04:33:41.710Z,14
2016-11-20T04:34:56.289Z,14
2016-11-20T04:36:10.533Z,14
2016-11-20T04:37:25.146Z,14
2016-11-20T04:38:39.435Z,14
2016-11-20T04:39:53.966Z,14
2016-11-20T04:44:06.400Z,14
2016-11-20T04:45:35.434Z,14
2016-11-20T04:46:49.526Z,14
2016-11-20T04:48:03.680Z,14
2016-11-20T04:49:18.291Z,14
2016-11-20T04:50:32.670Z,14
2016-11-20T04:51:47.481Z,14
2016-11-20T04:53:01.822Z,14
2016-11-20T04:54:16.608Z,14
2016-11-20T04:55:31.161Z,14
2016-11-20T04:56:45.386Z,14
2016-11-20T04:58:00.130Z,14
2016-11-20T04:59:14.352Z,14
2016-11-20T05:00:28.735Z,14
2016-11-20T05:01:43.159Z,14
2016-11-20T05:02:57.370Z,14
2016-11-20T05:04:14.311Z,14
2016-11-20T05:05:28.850Z,14
2016-11-20T05:06:43.486Z,15
2016-11-20T05:07:57.861Z,15
2016-11-20T05:09:12.176Z,15
2016-11-20T05:10:26.992Z,15
2016-11-20T05:11:41.377Z,15
2016-11-20T05:12:55.744Z,15
2016-11-20T05:14:10.486Z,15
2016-11-20T05:15:24.876Z,15
2016-11-20T05:16:39.612Z,15
2016-11-20T05:17:54.011Z,15
2016-11-20T05:19:08.326Z,15
2016-11-20T05:20:23.578Z,15
2016-11-20T05:22:36.764Z,15
2016-11-20T05:23:51.290Z,15
2016-11-20T05:25:05.700Z,15
2016-11-20T05:26:20.656Z,15
2016-11-20T05:27:35.045Z,15
2016-11-20T05:28:49.491Z,15
2016-11-20T05:30:04.060Z,15
2016-11-20T05:31:18.339Z,15
2016-11-20T05:32:32.692Z,15
2016-11-20T05:33:47.876Z,15
2016-11-20T05:35:02.115Z,15
2016-11-20T05:36:16.677Z,14
2016-11-20T05:37:31.190Z,14
2016-11-20T05:38:45.640Z,14
2016-11-20T05:39:59.780Z,14
2016-11-20T05:41:14.102Z,14
2016-11-20T05:42:28.323Z,14
2016-11-20T05:44:27.051Z,14
2016-11-20T05:45:41.867Z,14
2016-11-20T05:46:56.238Z,14
2016-11-20T05:48:10.623Z,14
2016-11-20T05:49:24.847Z,14
2016-11-20T05:50:53.990Z,14
2016-11-20T05:52:08.673Z,14
2016-11-20T05:53:23.290Z,14
2016-11-20T05:54:37.374Z,14
2016-11-20T05:55:51.513Z,14
2016-11-20T05:57:05.839Z,14
2016-11-20T05:58:20.981Z,14
2016-11-20T05:59:35.886Z,14
2016-11-20T06:00:50.220Z,14
2016-11-20T06:02:04.427Z,14
2016-11-20T06:03:18.529Z,14
2016-11-20T06:05:02.962Z,14
2016-11-20T06:06:17.793Z,14
2016-11-20T06:07:32.279Z,14
2016-11-20T06:08:46.528Z,14
2016-11-20T06:10:00.830Z,14
2016-11-20T06:11:15.821Z,14
2016-11-20T06:12:29.993Z,14
2016-11-20T06:13:44.314Z,14
2016-11-20T06:14:58.860Z,14
2016-11-20T06:16:13.135Z,14
2016-11-20T06:17:28.278Z,14
2016-11-20T06:18:42.656Z,14
2016-11-20T06:19:57.046Z,14
2016-11-20T06:21:11.359Z,14
2016-11-20T06:22:40.351Z,14
2016-11-20T06:23:57.893Z,14
2016-11-20T06:25:12.317Z,14
2016-11-20T06:26:26.822Z,14
2016-11-20T06:27:41.258Z,14
2016-11-20T06:28:55.676Z,14
2016-11-20T06:30:10.433Z,14
2016-11-20T06:31:25.141Z,14
2016-11-20T06:32:39.679Z,14
2016-11-20T06:33:54.414Z,14
2016-11-20T06:35:09.057Z,14
2016-11-20T06:36:23.630Z,14
2016-11-20T06:37:52.524Z,14
2016-11-20T06:39:06.910Z,14
2016-11-20T06:40:21.211Z,14
2016-11-20T06:41:35.548Z,14
2016-11-20T06:42:50.112Z,14
2016-11-20T06:44:04.695Z,14
2016-11-20T06:45:19.098Z,14
2016-11-20T06:46:33.961Z,14
2016-11-20T06:47:48.196Z,14
2016-11-20T06:49:02.766Z,15
2016-11-20T06:50:17.463Z,15
2016-11-20T06:51:46.950Z,15
2016-11-20T06:53:01.514Z,15
2016-11-20T06:54:15.896Z,15
2016-11-20T06:55:44.839Z,15
2016-11-20T06:56:59.732Z,15
2016-11-20T06:58:14.688Z,15
2016-11-20T06:59:29.444Z,15
2016-11-20T07:00:44.503Z,15
2016-11-20T07:01:59.099Z,15
2016-11-20T07:03:13.725Z,15
2016-11-20T07:04:28.890Z,15
2016-11-20T07:05:43.597Z,15
2016-11-20T07:06:58.024Z,15
2016-11-20T07:08:12.922Z,15
2016-11-20T07:09:30.896Z,15
2016-11-20T07:10:45.779Z,15
2016-11-20T07:12:01.073Z,15
2016-11-20T07:13:15.599Z,15
2016-11-20T07:14:30.387Z,16
2016-11-20T07:15:45.111Z,16
2016-11-20T07:16:59.902Z,16
2016-11-20T07:18:15.551Z,16
2016-11-20T07:19:30.265Z,16
2016-11-20T07:20:45.252Z,16
2016-11-20T07:22:00.612Z,16
2016-11-20T07:23:15.614Z,16
2016-11-20T07:24:30.437Z,16
2016-11-20T07:25:44.973Z,16
2016-11-20T07:27:00.140Z,16
2016-11-20T07:28:14.602Z,16
2016-11-20T07:29:29.904Z,16
2016-11-20T07:30:47.646Z,16
2016-11-20T07:32:03.282Z,16
2016-11-20T07:33:17.905Z,16
2016-11-20T07:34:32.493Z,16
2016-11-20T07:35:51.040Z,16
2016-11-20T07:38:35.425Z,16
2016-11-20T07:39:49.738Z,16
2016-11-20T07:41:04.420Z,16
2016-11-20T07:42:21.232Z,17
2016-11-20T07:43:35.729Z,17
2016-11-20T07:44:50.382Z,17
2016-11-20T07:46:04.684Z,17
2016-11-20T07:47:19.401Z,17
2016-11-20T07:48:33.943Z,17
2016-11-20T07:49:48.318Z,17
2016-11-20T07:51:02.739Z,17
2016-11-20T07:52:17.408Z,17
2016-11-20T07:53:32.601Z,17
2016-11-20T07:54:48.411Z,17
2016-11-20T07:56:04.099Z,17
2016-11-20T07:57:28.231Z,17
2016-11-20T07:58:52.422Z,17
2016-11-20T08:00:14.572Z,17
2016-11-20T08:01:31.393Z,17
2016-11-20T08:03:01.060Z,17
2016-11-20T08:04:21.595Z,17
2016-11-20T08:05:36.812Z,17
2016-11-20T08:06:51.437Z,17
2016-11-20T08:08:06.587Z,17
2016-11-20T08:09:21.939Z,17
2016-11-20T08:10:51.273Z,17
2016-11-20T08:12:05.747Z,17
2016-11-20T08:13:20.372Z,17
2016-11-20T08:14:35.123Z,18
2016-11-20T08:15:49.700Z,18
2016-11-20T08:17:04.225Z,18
2016-11-20T08:18:18.587Z,18
2016-11-20T08:19:33.195Z,18
2016-11-20T08:20:47.721Z,18
2016-11-20T08:22:02.321Z,18
2016-11-20T08:23:16.682Z,18
2016-11-20T08:24:30.999Z,18
2016-11-20T08:25:45.541Z,18
2016-11-20T08:27:00.234Z,18
2016-11-20T08:28:15.044Z,18
2016-11-20T08:29:29.790Z,18
2016-11-20T08:30:44.079Z,18
2016-11-20T08:31:58.454Z,18
2016-11-20T08:33:13.491Z,18
2016-11-20T08:34:28.079Z,18
2016-11-20T08:35:42.875Z,18
2016-11-20T08:36:57.440Z,18
2016-11-20T08:38:11.814Z,18
2016-11-20T08:39:26.630Z,18
2016-11-20T08:40:41.031Z,19
2016-11-20T08:41:55.859Z,19
2016-11-20T08:43:10.228Z,19
2016-11-20T08:44:25.232Z,19
2016-11-20T08:45:39.582Z,19
2016-11-20T08:46:54.017Z,19
2016-11-20T08:48:08.377Z,19
2016-11-20T08:49:22.719Z,19
2016-11-20T08:50:37.216Z,19
2016-11-20T08:51:51.659Z,19
2016-11-20T08:53:07.544Z,19
2016-11-20T08:54:22.406Z,19
2016-11-20T08:55:36.971Z,19
2016-11-20T08:56:51.478Z,19
2016-11-20T08:58:06.052Z,19
2016-11-20T08:59:20.396Z,19
2016-11-20T09:00:37.416Z,19
2016-11-20T09:01:51.934Z,19
2016-11-20T09:03:06.358Z,19
2016-11-20T09:04:21.036Z,19
2016-11-20T09:05:35.632Z,19
2016-11-20T09:06:50.671Z,20
2016-11-20T09:08:04.882Z,20
2016-11-20T09:09:19.169Z,20
2016-11-20T09:10:34.281Z,20
2016-11-20T09:11:49.057Z,20
2016-11-20T09:13:03.920Z,20
2016-11-20T09:14:18.279Z,19
2016-11-20T09:15:33.028Z,19
2016-11-20T09:16:47.532Z,19
2016-11-20T09:18:02.523Z,19
2016-11-20T09:19:17.821Z,19
2016-11-20T09:20:33.168Z,19
2016-11-20T09:21:47.895Z,19
2016-11-20T09:23:03.123Z,19
2016-11-20T09:24:17.671Z,19
2016-11-20T09:25:32.377Z,19
2016-11-20T09:26:46.968Z,19
2016-11-20T09:28:02.952Z,19
2016-11-20T09:29:17.734Z,19
2016-11-20T09:30:32.014Z,20
2016-11-20T09:31:46.947Z,20
2016-11-20T09:33:01.810Z,20
2016-11-20T09:34:16.881Z,20
2016-11-20T09:35:31.637Z,20
2016-11-20T09:36:46.147Z,20
2016-11-20T09:38:00.656Z,20
2016-11-20T09:39:15.082Z,20
2016-11-20T09:40:29.306Z,20
2016-11-20T09:41:44.482Z,20
2016-11-20T09:43:00.524Z,20
2016-11-20T09:44:20.349Z,20
2016-11-20T09:45:35.966Z,20
2016-11-20T09:46:52.964Z,20
2016-11-20T09:48:09.321Z,20
2016-11-20T09:49:24.865Z,20
2016-11-20T09:50:57.600Z,20
2016-11-20T09:52:21.274Z,20
2016-11-20T09:53:41.292Z,20
2016-11-20T09:54:58.675Z,20
2016-11-20T09:56:14.518Z,20
2016-11-20T09:57:29.645Z,20
2016-11-20T09:58:44.568Z,20
2016-11-20T09:59:59.092Z,20
2016-11-20T10:01:14.419Z,20
2016-11-20T10:02:29.209Z,20
2016-11-20T10:03:43.836Z,20
2016-11-20T10:04:59.303Z,20
2016-11-20T10:06:13.583Z,20
2016-11-20T10:07:28.286Z,20
2016-11-20T10:08:42.457Z,20
2016-11-20T10:09:57.778Z,20
2016-11-20T10:11:13.599Z,20
2016-11-20T10:12:29.046Z,20
2016-11-20T10:13:43.998Z,20
2016-11-20T10:15:13.093Z,20
2016-11-20T10:16:28.023Z,20
2016-11-20T10:17:42.986Z,20
2016-11-20T10:19:00.466Z,20
2016-11-20T10:20:14.798Z,20
2016-11-20T10:21:29.620Z,20
2016-11-20T10:22:43.722Z,20
2016-11-20T10:23:58.416Z,20
2016-11-20T10:25:13.508Z,20
2016-11-20T10:26:27.718Z,20
2016-11-20T10:27:42.070Z,20
2016-11-20T10:28:57.400Z,20
2016-11-20T10:30:11.853Z,20
2016-11-20T10:31:41.476Z,20
2016-11-20T10:32:56.074Z,20
2016-11-20T10:34:11.130Z,20
2016-11-20T10:35:25.671Z,20
2016-11-20T10:36:40.493Z,20
2016-11-20T10:37:55.395Z,20
2016-11-20T10:39:09.933Z,20
2016-11-20T10:40:24.955Z,20
2016-11-20T10:41:39.343Z,20
2016-11-20T10:42:54.016Z,20
2016-11-20T10:44:08.944Z,21
2016-11-20T10:45:23.532Z,21
2016-11-20T10:46:38.343Z,21
2016-11-20T10:47:53.254Z,21
2016-11-20T10:49:08.180Z,21
2016-11-20T10:50:25.591Z,21
2016-11-20T10:51:40.361Z,21
2016-11-20T10:52:55.289Z,21
2016-11-20T10:54:09.992Z,21
2016-11-20T10:55:25.978Z,21
2016-11-20T10:56:41.063Z,21
2016-11-20T10:57:55.897Z,21
2016-11-20T10:59:10.354Z,21
2016-11-20T11:00:25.345Z,21
2016-11-20T11:01:41.118Z,21
2016-11-20T11:02:56.448Z,22
2016-11-20T11:04:11.467Z,22
2016-11-20T11:05:26.044Z,22
2016-11-20T11:06:40.658Z,22
2016-11-20T11:07:54.969Z,22
2016-11-20T11:09:09.641Z,22
2016-11-20T11:10:23.835Z,22
2016-11-20T11:11:38.060Z,22
2016-11-20T11:12:52.958Z,22
2016-11-20T11:14:07.697Z,22
2016-11-20T11:16:52.278Z,22
2016-11-20T11:18:07.155Z,22
2016-11-20T11:19:21.392Z,22
2016-11-20T11:20:35.990Z,22
2016-11-20T11:21:50.715Z,22
2016-11-20T11:23:05.079Z,22
2016-11-20T11:24:19.485Z,22
2016-11-20T11:25:34.379Z,22
2016-11-20T11:26:49.190Z,22
2016-11-20T11:28:18.275Z,22
2016-11-20T11:29:32.978Z,22
2016-11-20T11:30:47.311Z,22
2016-11-20T11:32:02.121Z,23
2016-11-20T11:33:16.613Z,23
2016-11-20T11:34:31.367Z,23
2016-11-20T11:35:45.764Z,23
2016-11-20T11:37:03.453Z,23
2016-11-20T11:38:18.044Z,23
2016-11-20T11:39:32.728Z,23
2016-11-20T11:40:47.564Z,23
2016-11-20T11:42:02.127Z,23
2016-11-20T11:43:16.457Z,23
2016-11-20T11:44:31.303Z,23
2016-11-20T11:45:45.961Z,23
2016-11-20T11:47:00.226Z,23
2016-11-20T11:48:15.278Z,23
2016-11-20T11:49:29.648Z,23
2016-11-20T11:50:44.430Z,23
2016-11-20T11:51:59.286Z,23
2016-11-20T11:53:14.019Z,24
2016-11-20T11:54:28.743Z,24
2016-11-20T11:55:43.268Z,24
2016-11-20T11:56:57.811Z,24
2016-11-20T11:58:13.053Z,24
2016-11-20T11:59:27.198Z,24
2016-11-20T12:00:42.191Z,24
2016-11-20T12:01:56.876Z,24
2016-11-20T12:03:14.083Z,24
2016-11-20T12:04:29.134Z,24
2016-11-20T12:05:44.492Z,24
2016-11-20T12:07:00.138Z,24
2016-11-20T12:08:14.603Z,24
2016-11-20T12:09:29.188Z,24
2016-11-20T12:10:44.177Z,24
2016-11-20T12:11:59.314Z,24
2016-11-20T12:13:14.304Z,24
2016-11-20T12:14:29.072Z,24
2016-11-20T12:15:44.539Z,24
2016-11-20T12:17:00.333Z,24
2016-11-20T12:18:15.632Z,23
2016-11-20T12:19:31.174Z,24
2016-11-20T12:22:15.859Z,24
2016-11-20T12:23:31.262Z,24
2016-11-20T12:24:46.792Z,24
2016-11-20T12:26:02.151Z,24
2016-11-20T12:27:16.909Z,24
2016-11-20T12:28:32.405Z,24
2016-11-20T12:29:48.051Z,24
2016-11-20T12:31:04.376Z,24
2016-11-20T12:32:33.622Z,24
2016-11-20T12:33:48.253Z,24
2016-11-20T12:35:03.472Z,24
2016-11-20T12:36:18.839Z,24
2016-11-20T12:37:33.946Z,24
2016-11-20T12:38:48.655Z,24
2016-11-20T12:40:04.605Z,24
2016-11-20T12:41:19.488Z,24
2016-11-20T12:42:34.635Z,24
2016-11-20T12:43:49.514Z,24
2016-11-20T12:45:04.909Z,24
2016-11-20T12:46:19.563Z,24
2016-11-20T12:47:34.705Z,24
2016-11-20T12:48:49.298Z,24
2016-11-20T12:50:03.722Z,25
2016-11-20T12:51:18.998Z,25
2016-11-20T12:52:34.050Z,25
2016-11-20T12:53:48.568Z,25
2016-11-20T12:55:06.252Z,25
2016-11-20T12:56:21.476Z,25
2016-11-20T12:57:35.943Z,25
2016-11-20T12:59:05.323Z,25
2016-11-20T13:00:20.046Z,25
2016-11-20T13:01:35.205Z,25
2016-11-20T13:02:50.046Z,25
2016-11-20T13:04:04.583Z,25
2016-11-20T13:05:19.125Z,25
2016-11-20T13:06:33.696Z,25
2016-11-20T13:07:48.029Z,25
2016-11-20T13:09:03.421Z,25
2016-11-20T13:10:18.459Z,25
2016-11-20T13:11:33.462Z,25
2016-11-20T13:12:48.863Z,25
2016-11-20T13:14:03.798Z,25
2016-11-20T13:15:19.280Z,25
2016-11-20T13:16:34.032Z,25
2016-11-20T13:17:48.925Z,25
2016-11-20T13:19:03.985Z,25
2016-11-20T13:20:18.451Z,25
2016-11-20T13:21:32.803Z,25
2016-11-20T13:22:46.998Z,25
2016-11-20T13:24:01.477Z,25
2016-11-20T13:25:15.715Z,25
2016-11-20T13:26:30.075Z,25
2016-11-20T13:27:44.728Z,25
2016-11-20T13:28:59.319Z,25
2016-11-20T13:30:13.924Z,25
2016-11-20T13:31:28.097Z,25
2016-11-20T13:32:43.072Z,25
2016-11-20T13:33:58.521Z,25
2016-11-20T13:35:12.978Z,25
2016-11-20T13:36:27.867Z,25
2016-11-20T13:37:42.124Z,25
2016-11-20T13:38:57.140Z,25
2016-11-20T13:40:11.551Z,25
2016-11-20T13:41:26.276Z,25
2016-11-20T13:42:41.264Z,25
2016-11-20T13:43:55.429Z,25
2016-11-20T13:45:09.623Z,25
2016-11-20T13:46:24.297Z,25
2016-11-20T13:47:38.824Z,25
2016-11-20T13:48:54.310Z,25
2016-11-20T13:50:08.696Z,25
2016-11-20T13:51:23.045Z,25
2016-11-20T13:52:37.854Z,25
2016-11-20T13:53:52.658Z,25
2016-11-20T13:55:07.811Z,25
2016-11-20T13:56:42.928Z,25
2016-11-20T13:57:57.824Z,25
2016-11-20T13:59:12.355Z,25
2016-11-20T14:00:27.382Z,25
2016-11-20T14:01:56.744Z,25
2016-11-20T14:03:11.282Z,25
2016-11-20T14:04:27.960Z,25
2016-11-20T14:05:43.441Z,25
2016-11-20T14:06:58.080Z,25
2016-11-20T14:08:13.078Z,25
2016-11-20T14:09:27.848Z,25
2016-11-20T14:10:42.219Z,25
2016-11-20T14:11:57.619Z,25
2016-11-20T14:13:14.837Z,25
2016-11-20T14:14:29.676Z,25
2016-11-20T14:15:44.587Z,25
2016-11-20T14:16:59.428Z,25
2016-11-20T14:18:14.420Z,25
2016-11-20T14:19:29.511Z,25
2016-11-20T14:20:44.328Z,25
2016-11-20T14:22:13.280Z,25
2016-11-20T14:23:28.940Z,25
2016-11-20T14:24:43.913Z,25
2016-11-20T14:26:13.634Z,25
2016-11-20T14:27:28.213Z,25
2016-11-20T14:28:42.598Z,25
2016-11-20T14:29:57.735Z,25
2016-11-20T14:31:12.313Z,25
2016-11-20T14:32:27.132Z,25
2016-11-20T14:33:41.941Z,25
2016-11-20T14:34:57.057Z,25
2016-11-20T14:36:11.715Z,25
2016-11-20T14:37:26.568Z,25
2016-11-20T14:38:41.605Z,25
2016-11-20T14:39:56.078Z,25
2016-11-20T14:41:10.732Z,25
2016-11-20T14:42:25.488Z,25
2016-11-20T14:43:39.898Z,25
2016-11-20T14:44:54.766Z,25
2016-11-20T14:46:09.346Z,25
2016-11-20T14:47:24.302Z,25
2016-11-20T14:48:38.577Z,25
2016-11-20T14:49:53.162Z,25
2016-11-20T14:51:07.277Z,25
2016-11-20T14:52:21.688Z,25
2016-11-20T14:53:36.680Z,25
2016-11-20T14:54:51.211Z,25
2016-11-20T14:56:06.138Z,25
2016-11-20T14:57:21.324Z,25
2016-11-20T14:58:35.802Z,25
2016-11-20T14:59:50.821Z,25
2016-11-20T15:01:05.430Z,25
2016-11-20T15:02:19.978Z,25
2016-11-20T15:03:35.350Z,25
2016-11-20T15:04:50.925Z,25
2016-11-20T15:06:05.588Z,25
2016-11-20T15:07:20.579Z,25
2016-11-20T15:08:35.730Z,25
2016-11-20T15:09:50.388Z,25
2016-11-20T15:11:05.519Z,25
2016-11-20T15:12:20.871Z,25
2016-11-20T15:13:35.252Z,25
2016-11-20T15:14:50.196Z,25
2016-11-20T15:16:04.715Z,25
2016-11-20T15:17:19.302Z,25
2016-11-20T15:18:34.328Z,25
2016-11-20T15:19:48.852Z,25
2016-11-20T15:21:03.282Z,25
2016-11-20T15:22:18.742Z,25
2016-11-20T15:23:34.817Z,25
2016-11-20T15:25:03.889Z,25
2016-11-20T15:26:18.587Z,25
2016-11-20T15:27:33.261Z,25
2016-11-20T15:28:48.872Z,25
2016-11-20T15:30:03.643Z,25
2016-11-20T15:31:20.268Z,25
2016-11-20T15:32:35.758Z,25
2016-11-20T15:33:50.962Z,25
2016-11-20T15:35:05.466Z,25
2016-11-20T15:36:19.671Z,25
2016-11-20T15:37:34.091Z,25
2016-11-20T15:38:50.051Z,25
2016-11-20T15:40:05.101Z,25
2016-11-20T15:41:20.033Z,25
2016-11-20T15:42:34.419Z,25
2016-11-20T15:43:49.652Z,25
2016-11-20T15:45:04.020Z,25
2016-11-20T15:46:18.625Z,25
2016-11-20T15:47:32.709Z,25
2016-11-20T15:48:47.381Z,25
2016-11-20T15:50:16.596Z,25
2016-11-20T15:51:31.354Z,25
2016-11-20T15:52:46.246Z,25
2016-11-20T15:54:00.506Z,25
2016-11-20T15:55:14.760Z,25
2016-11-20T15:56:29.423Z,25
2016-11-20T15:57:43.592Z,25
2016-11-20T15:59:13.296Z,25
2016-11-20T16:00:27.961Z,25
2016-11-20T16:01:42.424Z,25
2016-11-20T16:02:56.685Z,25
2016-11-20T16:04:11.424Z,25
2016-11-20T16:05:26.347Z,25
2016-11-20T16:06:40.936Z,25
2016-11-20T16:07:55.446Z,25
2016-11-20T16:09:10.670Z,25
2016-11-20T16:10:25.098Z,25
2016-11-20T16:11:40.261Z,25
2016-11-20T16:12:54.810Z,25
2016-11-20T16:14:24.325Z,25
2016-11-20T16:15:39.151Z,25
2016-11-20T16:16:54.204Z,25
2016-11-20T16:18:09.191Z,25
2016-11-20T16:19:23.259Z,25
2016-11-20T16:20:37.485Z,25
2016-11-20T16:21:52.071Z,25
2016-11-20T16:23:21.501Z,25
2016-11-20T16:24:36.918Z,25
2016-11-20T16:25:51.250Z,26
2016-11-20T16:27:05.529Z,25
2016-11-20T16:28:20.351Z,25
2016-11-20T16:29:35.578Z,25
2016-11-20T16:30:50.559Z,25
2016-11-20T16:32:05.379Z,25
2016-11-20T16:33:20.300Z,25
2016-11-20T16:34:35.397Z,25
2016-11-20T16:35:50.739Z,25
2016-11-20T16:37:05.223Z,25
2016-11-20T16:38:19.821Z,25
2016-11-20T16:42:31.990Z,25
2016-11-20T16:44:31.002Z,25
2016-11-20T16:46:00.227Z,25
2016-11-20T16:47:15.249Z,25
2016-11-20T16:48:30.251Z,25
2016-11-20T16:49:44.799Z,25
2016-11-20T16:50:59.268Z,25
2016-11-20T16:52:16.073Z,25
2016-11-20T16:53:30.221Z,25
2016-11-20T16:54:44.974Z,25
2016-11-20T16:55:59.343Z,26
2016-11-20T16:57:13.680Z,25
2016-11-20T16:58:27.843Z,25
2016-11-20T16:59:42.686Z,25
2016-11-20T17:00:57.224Z,25
2016-11-20T17:02:12.448Z,25
2016-11-20T17:03:27.241Z,25
2016-11-20T17:04:42.409Z,25
2016-11-20T17:05:56.592Z,25
2016-11-20T17:07:11.493Z,26
2016-11-20T17:52:12.456Z,25
2016-11-20T17:53:27.275Z,26
2016-11-20T17:54:42.001Z,25
2016-11-20T17:56:12.111Z,26
2016-11-20T17:57:26.936Z,26
2016-11-20T17:58:42.592Z,26
2016-11-20T17:59:57.188Z,26
2016-11-20T18:01:11.984Z,26
2016-11-20T18:02:26.771Z,26
2016-11-20T18:03:41.829Z,26
2016-11-20T18:04:56.327Z,26
2016-11-20T18:06:10.505Z,26
2016-11-20T18:07:25.099Z,26
2016-11-20T18:08:39.754Z,26
2016-11-20T18:09:58.657Z,26
2016-11-20T18:11:13.214Z,26
2016-11-20T18:12:27.541Z,26
2016-11-20T18:13:41.816Z,26
2016-11-20T18:14:56.267Z,26
2016-11-20T18:16:11.327Z,26
2016-11-20T18:17:25.872Z,26
2016-11-20T18:18:54.963Z,26
2016-11-20T18:20:09.439Z,26
2016-11-20T18:21:24.631Z,26
2016-11-20T18:22:39.346Z,26
2016-11-20T18:23:53.760Z,26
2016-11-20T18:25:08.936Z,26
2016-11-20T18:26:23.987Z,26
2016-11-20T18:27:38.428Z,26
2016-11-20T18:28:53.989Z,26
2016-11-20T18:30:08.468Z,26
2016-11-20T18:31:23.013Z,26
2016-11-20T18:32:40.651Z,26
2016-11-20T18:35:25.165Z,26
2016-11-20T18:36:39.685Z,26
2016-11-20T18:37:54.263Z,26
2016-11-20T18:39:09.155Z,26
2016-11-20T18:40:23.376Z,26
2016-11-20T18:41:38.234Z,26
2016-11-20T18:42:52.716Z,26
2016-11-20T18:44:07.170Z,26
2016-11-20T18:45:21.947Z,26
2016-11-20T18:46:36.659Z,26
2016-11-20T18:47:51.260Z,26
2016-11-20T18:49:06.803Z,26
2016-11-20T18:50:21.300Z,26
2016-11-20T18:51:36.380Z,26
2016-11-20T18:52:50.914Z,26
2016-11-20T18:54:05.338Z,26
2016-11-20T18:55:20.772Z,26
2016-11-20T18:56:35.599Z,26
2016-11-20T18:57:50.489Z,26
2016-11-20T18:59:05.075Z,26